sensor_id;sensor_type;location;lat;lon;timestamp;P1;durP1;ratioP1;P2;durP2;ratioP2
23868;SDS011;12115;47.128;15.422;2022-08-19T00:02:02;4.97;;;1.60;;
23868;SDS011;12115;47.128;15.422;2022-08-19T00:04:32;5.25;;;2.08;;
23868;SDS011;12115;47.128;15.422;2022-08-19T00:07:04;5.93;;;2.05;;
23868;SDS011;12115;47.128;15.422;2022-08-19T00:09:32;4.90;;;2.22;;
23868;SDS011;12115;47.128;15.422;2022-08-19T00:11:59;10.88;;;2.10;;
23868;SDS011;12115;47.128;15.422;2022-08-19T00:14:28;7.63;;;2.30;;
23868;SDS011;12115;47.128;15.422;2022-08-19T00:16:58;6.07;;;2.33;;
23868;SDS011;12115;47.128;15.422;2022-08-19T00:19:26;5.60;;;2.10;;
23868;SDS011;12115;47.128;15.422;2022-08-19T00:21:53;9.80;;;2.67;;
23868;SDS011;12115;47.128;15.422;2022-08-19T00:24:22;7.18;;;2.60;;
23868;SDS011;12115;47.128;15.422;2022-08-19T00:26:51;7.90;;;2.10;;
23868;SDS011;12115;47.128;15.422;2022-08-19T00:29:19;6.03;;;2.30;;
23868;SDS011;12115;47.128;15.422;2022-08-19T00:31:46;7.88;;;2.38;;
23868;SDS011;12115;47.128;15.422;2022-08-19T00:34:16;6.75;;;2.13;;
23868;SDS011;12115;47.128;15.422;2022-08-19T00:36:43;7.28;;;2.53;;
23868;SDS011;12115;47.128;15.422;2022-08-19T00:39:11;6.07;;;2.17;;
23868;SDS011;12115;47.128;15.422;2022-08-19T00:41:39;10.57;;;2.60;;
23868;SDS011;12115;47.128;15.422;2022-08-19T00:44:12;8.07;;;2.13;;
23868;SDS011;12115;47.128;15.422;2022-08-19T00:46:53;5.13;;;2.20;;
23868;SDS011;12115;47.128;15.422;2022-08-19T00:49:35;10.68;;;2.47;;
23868;SDS011;12115;47.128;15.422;2022-08-19T00:52:14;7.82;;;2.40;;
23868;SDS011;12115;47.128;15.422;2022-08-19T00:54:44;10.55;;;2.50;;
23868;SDS011;12115;47.128;15.422;2022-08-19T00:57:18;5.22;;;2.40;;
23868;SDS011;12115;47.128;15.422;2022-08-19T00:59:51;5.90;;;2.15;;
23868;SDS011;12115;47.128;15.422;2022-08-19T01:02:28;5.60;;;2.03;;
23868;SDS011;12115;47.128;15.422;2022-08-19T01:04:56;7.30;;;2.45;;
23868;SDS011;12115;47.128;15.422;2022-08-19T01:07:24;6.25;;;2.22;;
23868;SDS011;12115;47.128;15.422;2022-08-19T01:09:51;7.70;;;2.55;;
23868;SDS011;12115;47.128;15.422;2022-08-19T01:12:19;7.72;;;2.38;;
23868;SDS011;12115;47.128;15.422;2022-08-19T01:14:46;4.90;;;2.45;;
23868;SDS011;12115;47.128;15.422;2022-08-19T01:17:14;4.90;;;2.25;;
23868;SDS011;12115;47.128;15.422;2022-08-19T01:19:43;10.07;;;2.33;;
23868;SDS011;12115;47.128;15.422;2022-08-19T01:24:57;8.32;;;2.22;;
23868;SDS011;12115;47.128;15.422;2022-08-19T01:27:24;4.47;;;2.40;;
23868;SDS011;12115;47.128;15.422;2022-08-19T01:29:54;7.53;;;2.17;;
23868;SDS011;12115;47.128;15.422;2022-08-19T01:32:22;7.95;;;2.60;;
23868;SDS011;12115;47.128;15.422;2022-08-19T01:34:59;8.55;;;2.60;;
23868;SDS011;12115;47.128;15.422;2022-08-19T01:37:28;7.70;;;1.88;;
23868;SDS011;12115;47.128;15.422;2022-08-19T01:39:57;4.90;;;1.98;;
23868;SDS011;12115;47.128;15.422;2022-08-19T01:42:24;3.80;;;1.80;;
23868;SDS011;12115;47.128;15.422;2022-08-19T01:44:55;6.95;;;2.55;;
23868;SDS011;12115;47.128;15.422;2022-08-19T01:47:23;6.10;;;2.50;;
23868;SDS011;12115;47.128;15.422;2022-08-19T01:49:50;8.65;;;2.42;;
23868;SDS011;12115;47.128;15.422;2022-08-19T01:52:17;6.93;;;2.30;;
23868;SDS011;12115;47.128;15.422;2022-08-19T01:54:44;6.60;;;2.13;;
23868;SDS011;12115;47.128;15.422;2022-08-19T01:57:12;8.20;;;2.40;;
23868;SDS011;12115;47.128;15.422;2022-08-19T01:59:41;10.50;;;2.70;;
23868;SDS011;12115;47.128;15.422;2022-08-19T02:02:10;6.47;;;2.65;;
23868;SDS011;12115;47.128;15.422;2022-08-19T02:04:37;9.50;;;2.60;;
23868;SDS011;12115;47.128;15.422;2022-08-19T02:07:05;7.03;;;3.05;;
23868;SDS011;12115;47.128;15.422;2022-08-19T02:09:34;4.82;;;2.40;;
23868;SDS011;12115;47.128;15.422;2022-08-19T02:12:03;9.48;;;2.70;;
23868;SDS011;12115;47.128;15.422;2022-08-19T02:14:31;7.85;;;2.63;;
23868;SDS011;12115;47.128;15.422;2022-08-19T02:17:01;7.28;;;2.63;;
23868;SDS011;12115;47.128;15.422;2022-08-19T02:19:28;6.60;;;2.60;;
23868;SDS011;12115;47.128;15.422;2022-08-19T02:21:55;8.20;;;2.85;;
23868;SDS011;12115;47.128;15.422;2022-08-19T02:24:22;11.20;;;2.78;;
23868;SDS011;12115;47.128;15.422;2022-08-19T02:26:49;8.18;;;2.40;;
23868;SDS011;12115;47.128;15.422;2022-08-19T02:29:17;10.82;;;3.10;;
23868;SDS011;12115;47.128;15.422;2022-08-19T02:31:44;10.07;;;2.90;;
23868;SDS011;12115;47.128;15.422;2022-08-19T02:34:11;7.63;;;3.22;;
23868;SDS011;12115;47.128;15.422;2022-08-19T02:36:38;5.10;;;2.47;;
23868;SDS011;12115;47.128;15.422;2022-08-19T02:39:08;5.78;;;2.35;;
23868;SDS011;12115;47.128;15.422;2022-08-19T02:41:35;6.40;;;2.58;;
23868;SDS011;12115;47.128;15.422;2022-08-19T02:44:04;8.38;;;2.90;;
23868;SDS011;12115;47.128;15.422;2022-08-19T02:46:51;7.80;;;2.97;;
23868;SDS011;12115;47.128;15.422;2022-08-19T02:49:18;7.60;;;2.67;;
23868;SDS011;12115;47.128;15.422;2022-08-19T02:51:46;9.00;;;2.83;;
23868;SDS011;12115;47.128;15.422;2022-08-19T02:54:14;8.27;;;2.88;;
23868;SDS011;12115;47.128;15.422;2022-08-19T02:56:41;10.23;;;3.20;;
23868;SDS011;12115;47.128;15.422;2022-08-19T02:59:10;7.80;;;2.67;;
23868;SDS011;12115;47.128;15.422;2022-08-19T03:01:39;7.30;;;2.55;;
23868;SDS011;12115;47.128;15.422;2022-08-19T03:04:09;8.93;;;2.65;;
23868;SDS011;12115;47.128;15.422;2022-08-19T03:06:40;8.93;;;2.45;;
23868;SDS011;12115;47.128;15.422;2022-08-19T03:09:10;10.35;;;2.65;;
23868;SDS011;12115;47.128;15.422;2022-08-19T03:11:37;6.43;;;2.67;;
23868;SDS011;12115;47.128;15.422;2022-08-19T03:14:05;9.77;;;3.13;;
23868;SDS011;12115;47.128;15.422;2022-08-19T03:16:39;10.93;;;3.13;;
23868;SDS011;12115;47.128;15.422;2022-08-19T03:19:09;7.07;;;3.20;;
23868;SDS011;12115;47.128;15.422;2022-08-19T03:21:37;6.32;;;3.20;;
23868;SDS011;12115;47.128;15.422;2022-08-19T03:24:05;9.55;;;3.40;;
23868;SDS011;12115;47.128;15.422;2022-08-19T03:26:34;5.38;;;2.78;;
23868;SDS011;12115;47.128;15.422;2022-08-19T03:29:06;7.88;;;2.70;;
23868;SDS011;12115;47.128;15.422;2022-08-19T03:31:37;6.10;;;2.83;;
23868;SDS011;12115;47.128;15.422;2022-08-19T03:34:18;10.45;;;3.30;;
23868;SDS011;12115;47.128;15.422;2022-08-19T03:36:47;6.68;;;2.97;;
23868;SDS011;12115;47.128;15.422;2022-08-19T03:39:15;8.88;;;3.13;;
23868;SDS011;12115;47.128;15.422;2022-08-19T03:41:43;10.77;;;3.80;;
23868;SDS011;12115;47.128;15.422;2022-08-19T03:44:13;8.73;;;3.90;;
23868;SDS011;12115;47.128;15.422;2022-08-19T03:46:44;9.45;;;3.67;;
23868;SDS011;12115;47.128;15.422;2022-08-19T03:49:13;14.30;;;4.10;;
23868;SDS011;12115;47.128;15.422;2022-08-19T03:51:41;7.68;;;3.88;;
23868;SDS011;12115;47.128;15.422;2022-08-19T03:54:11;12.77;;;3.67;;
23868;SDS011;12115;47.128;15.422;2022-08-19T03:56:40;9.57;;;3.90;;
23868;SDS011;12115;47.128;15.422;2022-08-19T03:59:11;13.85;;;3.40;;
23868;SDS011;12115;47.128;15.422;2022-08-19T04:01:39;12.05;;;4.90;;
23868;SDS011;12115;47.128;15.422;2022-08-19T04:04:07;12.77;;;6.47;;
23868;SDS011;12115;47.128;15.422;2022-08-19T04:06:35;14.80;;;6.68;;
23868;SDS011;12115;47.128;15.422;2022-08-19T04:09:06;10.10;;;5.50;;
23868;SDS011;12115;47.128;15.422;2022-08-19T04:11:43;12.60;;;5.55;;
23868;SDS011;12115;47.128;15.422;2022-08-19T04:14:14;16.50;;;5.35;;
23868;SDS011;12115;47.128;15.422;2022-08-19T04:16:43;9.57;;;4.40;;
23868;SDS011;12115;47.128;15.422;2022-08-19T04:19:11;9.68;;;4.50;;
23868;SDS011;12115;47.128;15.422;2022-08-19T04:21:40;10.20;;;4.35;;
23868;SDS011;12115;47.128;15.422;2022-08-19T04:24:09;10.35;;;3.90;;
23868;SDS011;12115;47.128;15.422;2022-08-19T04:26:36;12.27;;;4.00;;
23868;SDS011;12115;47.128;15.422;2022-08-19T04:29:06;6.63;;;3.45;;
23868;SDS011;12115;47.128;15.422;2022-08-19T04:31:38;7.25;;;2.90;;
23868;SDS011;12115;47.128;15.422;2022-08-19T04:34:08;7.35;;;3.00;;
23868;SDS011;12115;47.128;15.422;2022-08-19T04:36:38;7.85;;;3.15;;
23868;SDS011;12115;47.128;15.422;2022-08-19T04:39:08;7.55;;;3.33;;
23868;SDS011;12115;47.128;15.422;2022-08-19T04:41:37;5.97;;;2.97;;
23868;SDS011;12115;47.128;15.422;2022-08-19T04:44:23;10.25;;;3.33;;
23868;SDS011;12115;47.128;15.422;2022-08-19T04:46:50;8.32;;;3.15;;
23868;SDS011;12115;47.128;15.422;2022-08-19T04:49:18;8.93;;;3.03;;
23868;SDS011;12115;47.128;15.422;2022-08-19T04:51:49;10.30;;;3.22;;
23868;SDS011;12115;47.128;15.422;2022-08-19T04:54:18;8.25;;;3.03;;
23868;SDS011;12115;47.128;15.422;2022-08-19T04:57:05;10.63;;;2.72;;
23868;SDS011;12115;47.128;15.422;2022-08-19T04:59:37;7.97;;;3.42;;
23868;SDS011;12115;47.128;15.422;2022-08-19T05:02:06;9.27;;;3.38;;
23868;SDS011;12115;47.128;15.422;2022-08-19T05:04:34;9.40;;;3.45;;
23868;SDS011;12115;47.128;15.422;2022-08-19T05:07:06;8.68;;;2.83;;
23868;SDS011;12115;47.128;15.422;2022-08-19T05:09:34;6.82;;;2.55;;
23868;SDS011;12115;47.128;15.422;2022-08-19T05:12:21;11.15;;;3.30;;
23868;SDS011;12115;47.128;15.422;2022-08-19T05:14:54;6.60;;;2.60;;
23868;SDS011;12115;47.128;15.422;2022-08-19T05:17:24;7.70;;;2.60;;
23868;SDS011;12115;47.128;15.422;2022-08-19T05:19:55;8.43;;;3.03;;
23868;SDS011;12115;47.128;15.422;2022-08-19T05:22:42;7.20;;;2.83;;
23868;SDS011;12115;47.128;15.422;2022-08-19T05:25:14;9.50;;;3.45;;
23868;SDS011;12115;47.128;15.422;2022-08-19T05:27:45;10.52;;;4.15;;
23868;SDS011;12115;47.128;15.422;2022-08-19T05:30:13;9.25;;;3.85;;
23868;SDS011;12115;47.128;15.422;2022-08-19T05:32:40;15.05;;;3.80;;
23868;SDS011;12115;47.128;15.422;2022-08-19T05:35:08;9.77;;;3.83;;
23868;SDS011;12115;47.128;15.422;2022-08-19T05:37:36;8.40;;;4.05;;
23868;SDS011;12115;47.128;15.422;2022-08-19T05:40:03;6.70;;;3.47;;
23868;SDS011;12115;47.128;15.422;2022-08-19T05:42:30;9.55;;;3.75;;
23868;SDS011;12115;47.128;15.422;2022-08-19T05:44:57;11.90;;;4.28;;
23868;SDS011;12115;47.128;15.422;2022-08-19T05:47:24;13.73;;;4.22;;
23868;SDS011;12115;47.128;15.422;2022-08-19T05:49:51;10.90;;;4.30;;
23868;SDS011;12115;47.128;15.422;2022-08-19T05:52:19;10.57;;;4.82;;
23868;SDS011;12115;47.128;15.422;2022-08-19T05:54:52;9.77;;;4.20;;
23868;SDS011;12115;47.128;15.422;2022-08-19T05:57:22;9.25;;;3.88;;
23868;SDS011;12115;47.128;15.422;2022-08-19T05:59:50;9.48;;;4.10;;
23868;SDS011;12115;47.128;15.422;2022-08-19T06:02:27;11.65;;;4.60;;
23868;SDS011;12115;47.128;15.422;2022-08-19T06:04:55;6.00;;;3.63;;
23868;SDS011;12115;47.128;15.422;2022-08-19T06:07:22;6.10;;;3.55;;
23868;SDS011;12115;47.128;15.422;2022-08-19T06:09:49;8.48;;;3.97;;
23868;SDS011;12115;47.128;15.422;2022-08-19T06:12:29;7.30;;;3.88;;
23868;SDS011;12115;47.128;15.422;2022-08-19T06:15:02;7.93;;;3.63;;
23868;SDS011;12115;47.128;15.422;2022-08-19T06:17:33;8.95;;;3.60;;
23868;SDS011;12115;47.128;15.422;2022-08-19T06:20:05;7.40;;;4.03;;
23868;SDS011;12115;47.128;15.422;2022-08-19T06:22:37;10.10;;;3.90;;
23868;SDS011;12115;47.128;15.422;2022-08-19T06:25:05;7.28;;;3.13;;
23868;SDS011;12115;47.128;15.422;2022-08-19T06:27:32;9.70;;;4.05;;
23868;SDS011;12115;47.128;15.422;2022-08-19T06:30:00;7.85;;;3.53;;
23868;SDS011;12115;47.128;15.422;2022-08-19T06:32:28;10.55;;;4.20;;
23868;SDS011;12115;47.128;15.422;2022-08-19T06:34:55;7.53;;;3.47;;
23868;SDS011;12115;47.128;15.422;2022-08-19T06:37:22;5.95;;;3.45;;
23868;SDS011;12115;47.128;15.422;2022-08-19T06:39:49;9.35;;;4.03;;
23868;SDS011;12115;47.128;15.422;2022-08-19T06:42:17;11.05;;;4.60;;
23868;SDS011;12115;47.128;15.422;2022-08-19T06:44:47;11.57;;;3.90;;
23868;SDS011;12115;47.128;15.422;2022-08-19T06:47:19;10.40;;;4.07;;
23868;SDS011;12115;47.128;15.422;2022-08-19T06:49:54;10.27;;;3.95;;
23868;SDS011;12115;47.128;15.422;2022-08-19T06:52:34;11.65;;;4.05;;
23868;SDS011;12115;47.128;15.422;2022-08-19T06:55:04;14.07;;;3.78;;
23868;SDS011;12115;47.128;15.422;2022-08-19T06:57:32;7.47;;;4.50;;
23868;SDS011;12115;47.128;15.422;2022-08-19T07:00:00;7.15;;;3.78;;
23868;SDS011;12115;47.128;15.422;2022-08-19T07:02:28;7.15;;;3.38;;
23868;SDS011;12115;47.128;15.422;2022-08-19T07:04:55;9.15;;;3.65;;
23868;SDS011;12115;47.128;15.422;2022-08-19T07:07:24;7.55;;;3.30;;
23868;SDS011;12115;47.128;15.422;2022-08-19T07:09:52;5.15;;;2.60;;
23868;SDS011;12115;47.128;15.422;2022-08-19T07:12:27;8.27;;;3.13;;
23868;SDS011;12115;47.128;15.422;2022-08-19T07:15:01;7.28;;;2.30;;
23868;SDS011;12115;47.128;15.422;2022-08-19T07:20:01;6.00;;;2.38;;
23868;SDS011;12115;47.128;15.422;2022-08-19T07:22:34;5.57;;;2.30;;
23868;SDS011;12115;47.128;15.422;2022-08-19T07:25:02;5.97;;;2.40;;
23868;SDS011;12115;47.128;15.422;2022-08-19T07:27:30;9.52;;;2.72;;
23868;SDS011;12115;47.128;15.422;2022-08-19T07:29:59;7.78;;;2.70;;
23868;SDS011;12115;47.128;15.422;2022-08-19T07:32:26;5.10;;;2.80;;
23868;SDS011;12115;47.128;15.422;2022-08-19T07:34:54;6.18;;;2.60;;
23868;SDS011;12115;47.128;15.422;2022-08-19T07:37:25;7.88;;;2.85;;
23868;SDS011;12115;47.128;15.422;2022-08-19T07:39:59;9.15;;;2.78;;
23868;SDS011;12115;47.128;15.422;2022-08-19T07:42:27;7.72;;;2.67;;
23868;SDS011;12115;47.128;15.422;2022-08-19T07:44:56;7.15;;;2.15;;
23868;SDS011;12115;47.128;15.422;2022-08-19T07:47:25;6.25;;;2.33;;
23868;SDS011;12115;47.128;15.422;2022-08-19T07:50:13;5.45;;;1.88;;
23868;SDS011;12115;47.128;15.422;2022-08-19T07:52:41;5.93;;;2.20;;
23868;SDS011;12115;47.128;15.422;2022-08-19T07:55:15;5.78;;;2.08;;
23868;SDS011;12115;47.128;15.422;2022-08-19T07:58:07;5.72;;;1.90;;
23868;SDS011;12115;47.128;15.422;2022-08-19T08:00:35;3.08;;;1.95;;
23868;SDS011;12115;47.128;15.422;2022-08-19T08:03:02;4.05;;;2.28;;
23868;SDS011;12115;47.128;15.422;2022-08-19T08:05:30;7.60;;;1.95;;
23868;SDS011;12115;47.128;15.422;2022-08-19T08:08:15;4.13;;;1.77;;
23868;SDS011;12115;47.128;15.422;2022-08-19T08:11:18;5.40;;;2.40;;
23868;SDS011;12115;47.128;15.422;2022-08-19T08:13:49;6.63;;;2.15;;
23868;SDS011;12115;47.128;15.422;2022-08-19T08:16:30;4.28;;;1.92;;
23868;SDS011;12115;47.128;15.422;2022-08-19T08:19:00;7.15;;;2.95;;
23868;SDS011;12115;47.128;15.422;2022-08-19T08:21:27;8.30;;;2.88;;
23868;SDS011;12115;47.128;15.422;2022-08-19T08:23:54;6.72;;;3.17;;
23868;SDS011;12115;47.128;15.422;2022-08-19T08:26:22;8.90;;;3.10;;
23868;SDS011;12115;47.128;15.422;2022-08-19T08:28:49;8.18;;;2.75;;
23868;SDS011;12115;47.128;15.422;2022-08-19T08:31:17;8.70;;;2.60;;
23868;SDS011;12115;47.128;15.422;2022-08-19T08:33:46;7.05;;;2.97;;
23868;SDS011;12115;47.128;15.422;2022-08-19T08:36:13;7.50;;;2.78;;
23868;SDS011;12115;47.128;15.422;2022-08-19T08:38:41;7.25;;;2.55;;
23868;SDS011;12115;47.128;15.422;2022-08-19T08:44:11;6.53;;;2.75;;
23868;SDS011;12115;47.128;15.422;2022-08-19T08:46:53;6.15;;;2.90;;
23868;SDS011;12115;47.128;15.422;2022-08-19T08:52:22;8.35;;;2.80;;
23868;SDS011;12115;47.128;15.422;2022-08-19T08:54:59;8.55;;;2.85;;
23868;SDS011;12115;47.128;15.422;2022-08-19T09:00:17;7.72;;;3.17;;
23868;SDS011;12115;47.128;15.422;2022-08-19T09:02:47;5.90;;;2.90;;
23868;SDS011;12115;47.128;15.422;2022-08-19T09:05:16;5.78;;;2.70;;
23868;SDS011;12115;47.128;15.422;2022-08-19T09:08:02;6.18;;;3.15;;
23868;SDS011;12115;47.128;15.422;2022-08-19T09:10:46;6.80;;;2.88;;
23868;SDS011;12115;47.128;15.422;2022-08-19T09:16:07;6.72;;;3.00;;
23868;SDS011;12115;47.128;15.422;2022-08-19T09:18:45;6.75;;;2.58;;
23868;SDS011;12115;47.128;15.422;2022-08-19T09:21:15;7.07;;;2.97;;
23868;SDS011;12115;47.128;15.422;2022-08-19T09:23:42;10.95;;;3.05;;
23868;SDS011;12115;47.128;15.422;2022-08-19T09:26:14;5.00;;;2.80;;
23868;SDS011;12115;47.128;15.422;2022-08-19T09:28:46;7.15;;;3.10;;
23868;SDS011;12115;47.128;15.422;2022-08-19T09:31:22;9.32;;;3.28;;
23868;SDS011;12115;47.128;15.422;2022-08-19T09:33:52;6.55;;;2.72;;
23868;SDS011;12115;47.128;15.422;2022-08-19T09:36:25;6.40;;;3.10;;
23868;SDS011;12115;47.128;15.422;2022-08-19T09:39:00;5.93;;;3.03;;
23868;SDS011;12115;47.128;15.422;2022-08-19T09:41:27;5.63;;;3.10;;
23868;SDS011;12115;47.128;15.422;2022-08-19T09:43:55;8.18;;;3.30;;
23868;SDS011;12115;47.128;15.422;2022-08-19T09:46:25;7.32;;;3.33;;
23868;SDS011;12115;47.128;15.422;2022-08-19T09:48:56;8.25;;;3.53;;
23868;SDS011;12115;47.128;15.422;2022-08-19T09:51:32;7.05;;;3.47;;
23868;SDS011;12115;47.128;15.422;2022-08-19T09:54:03;5.25;;;2.85;;
23868;SDS011;12115;47.128;15.422;2022-08-19T09:56:31;6.13;;;3.13;;
23868;SDS011;12115;47.128;15.422;2022-08-19T09:59:00;10.65;;;3.20;;
23868;SDS011;12115;47.128;15.422;2022-08-19T10:01:30;7.40;;;2.53;;
23868;SDS011;12115;47.128;15.422;2022-08-19T10:03:59;5.63;;;2.90;;
23868;SDS011;12115;47.128;15.422;2022-08-19T10:06:35;5.72;;;2.70;;
23868;SDS011;12115;47.128;15.422;2022-08-19T10:09:12;6.07;;;2.60;;
23868;SDS011;12115;47.128;15.422;2022-08-19T10:11:41;11.05;;;3.13;;
23868;SDS011;12115;47.128;15.422;2022-08-19T10:14:19;8.70;;;3.10;;
23868;SDS011;12115;47.128;15.422;2022-08-19T10:16:49;8.70;;;3.25;;
23868;SDS011;12115;47.128;15.422;2022-08-19T10:19:18;6.65;;;3.10;;
23868;SDS011;12115;47.128;15.422;2022-08-19T10:21:51;7.88;;;3.25;;
23868;SDS011;12115;47.128;15.422;2022-08-19T10:24:25;7.47;;;3.17;;
23868;SDS011;12115;47.128;15.422;2022-08-19T10:26:54;10.30;;;3.05;;
23868;SDS011;12115;47.128;15.422;2022-08-19T10:29:25;10.95;;;3.63;;
23868;SDS011;12115;47.128;15.422;2022-08-19T10:32:03;7.13;;;2.58;;
23868;SDS011;12115;47.128;15.422;2022-08-19T10:34:38;7.82;;;3.53;;
23868;SDS011;12115;47.128;15.422;2022-08-19T10:37:15;12.02;;;3.85;;
23868;SDS011;12115;47.128;15.422;2022-08-19T10:39:54;7.32;;;3.70;;
23868;SDS011;12115;47.128;15.422;2022-08-19T10:42:21;8.02;;;3.08;;
23868;SDS011;12115;47.128;15.422;2022-08-19T10:44:48;6.97;;;3.28;;
23868;SDS011;12115;47.128;15.422;2022-08-19T10:47:17;7.53;;;3.35;;
23868;SDS011;12115;47.128;15.422;2022-08-19T10:49:54;7.90;;;3.28;;
23868;SDS011;12115;47.128;15.422;2022-08-19T10:52:42;9.27;;;3.58;;
23868;SDS011;12115;47.128;15.422;2022-08-19T10:55:16;10.88;;;3.63;;
23868;SDS011;12115;47.128;15.422;2022-08-19T10:58:04;9.10;;;2.90;;
23868;SDS011;12115;47.128;15.422;2022-08-19T11:00:37;7.85;;;3.13;;
23868;SDS011;12115;47.128;15.422;2022-08-19T11:03:04;8.82;;;3.65;;
23868;SDS011;12115;47.128;15.422;2022-08-19T11:05:31;8.43;;;3.78;;
23868;SDS011;12115;47.128;15.422;2022-08-19T11:08:05;7.97;;;3.33;;
23868;SDS011;12115;47.128;15.422;2022-08-19T11:10:49;8.63;;;3.40;;
23868;SDS011;12115;47.128;15.422;2022-08-19T11:13:20;5.78;;;2.70;;
23868;SDS011;12115;47.128;15.422;2022-08-19T11:15:47;7.07;;;3.00;;
23868;SDS011;12115;47.128;15.422;2022-08-19T11:18:22;6.63;;;2.85;;
23868;SDS011;12115;47.128;15.422;2022-08-19T11:20:49;7.13;;;3.10;;
23868;SDS011;12115;47.128;15.422;2022-08-19T11:23:16;8.15;;;2.83;;
23868;SDS011;12115;47.128;15.422;2022-08-19T11:25:43;7.93;;;2.40;;
23868;SDS011;12115;47.128;15.422;2022-08-19T11:28:12;10.35;;;2.67;;
23868;SDS011;12115;47.128;15.422;2022-08-19T11:30:39;5.03;;;2.10;;
23868;SDS011;12115;47.128;15.422;2022-08-19T11:33:06;8.27;;;2.30;;
23868;SDS011;12115;47.128;15.422;2022-08-19T11:35:33;8.20;;;2.35;;
23868;SDS011;12115;47.128;15.422;2022-08-19T11:38:01;5.47;;;2.30;;
23868;SDS011;12115;47.128;15.422;2022-08-19T11:40:33;7.03;;;2.58;;
23868;SDS011;12115;47.128;15.422;2022-08-19T11:43:00;6.65;;;2.42;;
23868;SDS011;12115;47.128;15.422;2022-08-19T11:45:28;10.23;;;2.13;;
23868;SDS011;12115;47.128;15.422;2022-08-19T11:47:56;12.27;;;2.90;;
23868;SDS011;12115;47.128;15.422;2022-08-19T11:50:23;8.00;;;2.42;;
23868;SDS011;12115;47.128;15.422;2022-08-19T11:52:53;8.50;;;2.85;;
23868;SDS011;12115;47.128;15.422;2022-08-19T11:55:21;10.07;;;2.80;;
23868;SDS011;12115;47.128;15.422;2022-08-19T11:57:49;8.07;;;2.47;;
23868;SDS011;12115;47.128;15.422;2022-08-19T12:00:16;9.13;;;2.33;;
23868;SDS011;12115;47.128;15.422;2022-08-19T12:02:44;9.93;;;2.65;;
23868;SDS011;12115;47.128;15.422;2022-08-19T12:05:11;10.68;;;3.00;;
23868;SDS011;12115;47.128;15.422;2022-08-19T12:07:39;10.10;;;2.80;;
23868;SDS011;12115;47.128;15.422;2022-08-19T12:10:10;8.48;;;2.60;;
23868;SDS011;12115;47.128;15.422;2022-08-19T12:12:37;6.22;;;2.30;;
23868;SDS011;12115;47.128;15.422;2022-08-19T12:15:09;8.02;;;2.38;;
23868;SDS011;12115;47.128;15.422;2022-08-19T12:17:37;10.50;;;2.75;;
23868;SDS011;12115;47.128;15.422;2022-08-19T12:20:05;6.18;;;2.30;;
23868;SDS011;12115;47.128;15.422;2022-08-19T12:22:35;11.63;;;3.05;;
23868;SDS011;12115;47.128;15.422;2022-08-19T12:25:03;9.23;;;2.55;;
23868;SDS011;12115;47.128;15.422;2022-08-19T12:27:31;11.93;;;2.60;;
23868;SDS011;12115;47.128;15.422;2022-08-19T12:30:06;7.93;;;2.88;;
23868;SDS011;12115;47.128;15.422;2022-08-19T12:32:36;9.15;;;2.63;;
23868;SDS011;12115;47.128;15.422;2022-08-19T12:35:06;9.57;;;2.70;;
23868;SDS011;12115;47.128;15.422;2022-08-19T12:37:35;10.02;;;2.47;;
23868;SDS011;12115;47.128;15.422;2022-08-19T12:40:02;7.70;;;2.40;;
23868;SDS011;12115;47.128;15.422;2022-08-19T12:42:30;8.95;;;2.40;;
23868;SDS011;12115;47.128;15.422;2022-08-19T12:44:57;8.75;;;2.30;;
23868;SDS011;12115;47.128;15.422;2022-08-19T12:47:24;7.95;;;2.28;;
23868;SDS011;12115;47.128;15.422;2022-08-19T12:49:52;8.20;;;2.00;;
23868;SDS011;12115;47.128;15.422;2022-08-19T12:52:22;6.28;;;1.75;;
23868;SDS011;12115;47.128;15.422;2022-08-19T12:54:51;5.53;;;1.58;;
23868;SDS011;12115;47.128;15.422;2022-08-19T12:57:21;7.05;;;2.13;;
23868;SDS011;12115;47.128;15.422;2022-08-19T13:02:37;9.45;;;1.90;;
23868;SDS011;12115;47.128;15.422;2022-08-19T13:05:13;4.07;;;1.85;;
23868;SDS011;12115;47.128;15.422;2022-08-19T13:07:42;7.63;;;2.25;;
23868;SDS011;12115;47.128;15.422;2022-08-19T13:10:19;5.65;;;1.90;;
23868;SDS011;12115;47.128;15.422;2022-08-19T13:12:48;4.38;;;1.48;;
23868;SDS011;12115;47.128;15.422;2022-08-19T13:15:17;7.57;;;2.30;;
23868;SDS011;12115;47.128;15.422;2022-08-19T13:17:50;7.60;;;1.90;;
23868;SDS011;12115;47.128;15.422;2022-08-19T13:20:22;6.10;;;2.00;;
23868;SDS011;12115;47.128;15.422;2022-08-19T13:22:50;7.20;;;1.60;;
23868;SDS011;12115;47.128;15.422;2022-08-19T13:25:18;6.20;;;2.08;;
23868;SDS011;12115;47.128;15.422;2022-08-19T13:27:46;7.18;;;2.05;;
23868;SDS011;12115;47.128;15.422;2022-08-19T13:30:15;7.78;;;1.95;;
23868;SDS011;12115;47.128;15.422;2022-08-19T13:33:02;11.98;;;2.83;;
23868;SDS011;12115;47.128;15.422;2022-08-19T13:35:51;11.98;;;2.28;;
23868;SDS011;12115;47.128;15.422;2022-08-19T13:38:24;7.00;;;2.00;;
23868;SDS011;12115;47.128;15.422;2022-08-19T13:40:51;10.10;;;2.30;;
23868;SDS011;12115;47.128;15.422;2022-08-19T13:43:20;8.48;;;2.10;;
23868;SDS011;12115;47.128;15.422;2022-08-19T13:45:53;13.93;;;2.17;;
23868;SDS011;12115;47.128;15.422;2022-08-19T13:48:23;7.50;;;2.35;;
23868;SDS011;12115;47.128;15.422;2022-08-19T13:50:52;9.32;;;2.53;;
23868;SDS011;12115;47.128;15.422;2022-08-19T13:53:20;6.88;;;1.80;;
23868;SDS011;12115;47.128;15.422;2022-08-19T13:55:47;9.82;;;2.28;;
23868;SDS011;12115;47.128;15.422;2022-08-19T13:58:16;8.65;;;2.17;;
23868;SDS011;12115;47.128;15.422;2022-08-19T14:00:44;11.43;;;2.08;;
23868;SDS011;12115;47.128;15.422;2022-08-19T14:03:12;9.77;;;2.28;;
23868;SDS011;12115;47.128;15.422;2022-08-19T14:05:40;10.82;;;2.30;;
23868;SDS011;12115;47.128;15.422;2022-08-19T14:08:07;4.85;;;2.13;;
23868;SDS011;12115;47.128;15.422;2022-08-19T14:10:35;7.45;;;2.00;;
23868;SDS011;12115;47.128;15.422;2022-08-19T14:13:03;6.22;;;2.20;;
23868;SDS011;12115;47.128;15.422;2022-08-19T14:15:30;8.95;;;2.20;;
23868;SDS011;12115;47.128;15.422;2022-08-19T14:17:58;13.85;;;2.28;;
23868;SDS011;12115;47.128;15.422;2022-08-19T14:20:25;10.27;;;2.25;;
23868;SDS011;12115;47.128;15.422;2022-08-19T14:22:53;8.60;;;2.30;;
23868;SDS011;12115;47.128;15.422;2022-08-19T14:25:24;5.55;;;2.13;;
23868;SDS011;12115;47.128;15.422;2022-08-19T14:27:52;9.03;;;2.13;;
23868;SDS011;12115;47.128;15.422;2022-08-19T14:30:22;7.53;;;2.17;;
23868;SDS011;12115;47.128;15.422;2022-08-19T14:32:53;11.30;;;2.08;;
23868;SDS011;12115;47.128;15.422;2022-08-19T14:35:21;8.07;;;2.17;;
23868;SDS011;12115;47.128;15.422;2022-08-19T14:37:49;11.15;;;2.25;;
23868;SDS011;12115;47.128;15.422;2022-08-19T14:40:18;7.82;;;2.05;;
23868;SDS011;12115;47.128;15.422;2022-08-19T14:42:47;9.38;;;2.40;;
23868;SDS011;12115;47.128;15.422;2022-08-19T14:45:14;8.65;;;2.22;;
23868;SDS011;12115;47.128;15.422;2022-08-19T14:47:42;9.10;;;2.42;;
23868;SDS011;12115;47.128;15.422;2022-08-19T14:50:11;11.60;;;2.30;;
23868;SDS011;12115;47.128;15.422;2022-08-19T14:52:44;7.68;;;2.03;;
23868;SDS011;12115;47.128;15.422;2022-08-19T14:55:14;7.70;;;2.00;;
23868;SDS011;12115;47.128;15.422;2022-08-19T14:57:43;7.13;;;2.13;;
23868;SDS011;12115;47.128;15.422;2022-08-19T15:00:10;8.40;;;2.30;;
23868;SDS011;12115;47.128;15.422;2022-08-19T15:02:40;7.63;;;2.10;;
23868;SDS011;12115;47.128;15.422;2022-08-19T15:05:08;10.70;;;2.00;;
23868;SDS011;12115;47.128;15.422;2022-08-19T15:07:36;10.40;;;2.50;;
23868;SDS011;12115;47.128;15.422;2022-08-19T15:10:04;12.02;;;2.47;;